TimeAKDT,TemperatureF,Dew PointF,Humidity,Sea Level PressureIn,VisibilityMPH,Wind Direction,Wind SpeedMPH,Gust SpeedMPH,PrecipitationIn,Events,Conditions,WindDirDegrees,DateUTC
12:07 AM,35.1,35.1,100,29.63,2.0,Calm,Calm,-,N/A,,Overcast,0,2014-04-10 08:07:00
12:26 AM,35.1,35.1,100,29.63,3.0,Calm,Calm,-,0.00,Rain,Light Rain,0,2014-04-10 08:26:00
12:33 AM,35.1,35.1,100,29.63,1.8,Calm,Calm,-,0.00,,Overcast,0,2014-04-10 08:33:00
12:43 AM,35.1,34.0,96,29.64,3.0,Calm,Calm,-,0.00,,Overcast,0,2014-04-10 08:43:00
12:54 AM,35.1,34.0,96,29.65,3.0,Calm,Calm,-,0.01,Rain,Light Rain,0,2014-04-10 08:54:00
1:24 AM,35.1,34.0,96,29.65,2.0,WNW,3.5,-,0.00,,Overcast,290,2014-04-10 09:24:00
1:38 AM,35.1,35.1,100,29.65,3.0,Calm,Calm,-,0.00,,Overcast,0,2014-04-10 09:38:00
1:54 AM,35.1,35.1,100,29.66,4.0,Calm,Calm,-,0.01,Rain,Light Rain,0,2014-04-10 09:54:00
2:54 AM,34.0,33.1,96,29.67,3.0,WNW,10.4,-,0.01,,Overcast,290,2014-04-10 10:54:00
2:56 AM,34.0,33.1,96,29.66,2.5,WNW,9.2,-,0.00,,Overcast,300,2014-04-10 10:56:00
3:06 AM,34.0,33.1,96,29.67,2.5,WNW,8.1,-,0.00,,Overcast,290,2014-04-10 11:06:00
3:29 AM,34.0,33.1,96,29.68,2.5,WNW,9.2,-,0.00,,Overcast,290,2014-04-10 11:29:00
3:38 AM,34.0,33.1,96,29.68,2.5,WNW,8.1,-,0.00,,Overcast,290,2014-04-10 11:38:00
3:45 AM,33.1,32.0,96,29.68,3.0,WNW,9.2,-,0.00,,Overcast,300,2014-04-10 11:45:00
3:54 AM,33.1,32.0,96,29.69,4.0,West,9.2,-,0.00,,Overcast,280,2014-04-10 11:54:00
4:12 AM,33.1,32.0,96,29.68,9.0,WNW,10.4,-,0.00,,Overcast,290,2014-04-10 12:12:00
4:54 AM,34.0,33.1,96,29.70,10.0,NW,10.4,-,0.00,,Overcast,310,2014-04-10 12:54:00
5:54 AM,34.0,32.0,92,29.71,10.0,NW,11.5,-,0.00,,Overcast,310,2014-04-10 13:54:00
6:27 AM,34.0,32.0,92,29.72,10.0,WNW,10.4,-,0.00,,Overcast,300,2014-04-10 14:27:00
6:49 AM,33.8,32.0,93,29.73,10.0,NW,9.2,-,0.00,,Overcast,310,2014-04-10 14:49:00
6:54 AM,34.0,32.0,92,29.74,10.0,WNW,10.4,-,0.00,,Overcast,300,2014-04-10 14:54:00
7:19 AM,34.0,30.9,89,29.74,10.0,NW,10.4,-,N/A,,Overcast,310,2014-04-10 15:19:00
7:27 AM,34.0,30.9,89,29.74,10.0,WNW,10.4,-,N/A,,Overcast,300,2014-04-10 15:27:00
7:54 AM,33.1,28.9,85,29.76,10.0,WNW,13.8,-,N/A,,Overcast,300,2014-04-10 15:54:00
8:54 AM,33.1,27.0,78,29.79,10.0,WNW,16.1,19.6,N/A,,Overcast,290,2014-04-10 16:54:00
9:54 AM,33.1,26.1,75,29.82,10.0,WNW,15.0,23.0,N/A,,Overcast,290,2014-04-10 17:54:00
10:23 AM,33.1,26.1,75,29.82,9.0,WNW,18.4,25.3,0.00,Snow,Light Snow,290,2014-04-10 18:23:00
10:54 AM,34.0,24.1,67,29.84,9.0,West,18.4,26.5,0.00,,Overcast,280,2014-04-10 18:54:00
11:18 AM,35.1,25.0,67,29.84,8.0,WNW,15.0,26.5,0.00,Snow,Light Snow,290,2014-04-10 19:18:00
11:54 AM,37.0,24.1,59,29.86,10.0,West,20.7,27.6,0.00,,Overcast,280,2014-04-10 19:54:00
12:54 PM,37.0,23.0,57,29.87,10.0,West,16.1,26.5,N/A,,Overcast,280,2014-04-10 20:54:00
1:54 PM,37.0,21.0,52,29.88,9.0,West,18.4,24.2,0.00,,Overcast,280,2014-04-10 21:54:00
2:54 PM,37.9,21.9,53,29.89,10.0,WNW,17.3,-,N/A,,Overcast,290,2014-04-10 22:54:00
3:54 PM,39.0,23.0,53,29.89,10.0,WNW,13.8,-,N/A,,Overcast,290,2014-04-10 23:54:00
4:54 PM,39.0,21.9,50,29.88,10.0,WNW,16.1,-,N/A,,Overcast,300,2014-04-11 00:54:00
5:54 PM,37.9,19.9,48,29.89,10.0,WNW,15.0,-,N/A,,Overcast,290,2014-04-11 01:54:00
6:54 PM,37.0,19.9,50,29.90,10.0,WNW,9.2,-,N/A,,Overcast,290,2014-04-11 02:54:00
7:54 PM,36.0,18.0,48,29.91,10.0,NW,11.5,-,N/A,,Mostly Cloudy,310,2014-04-11 03:54:00
8:54 PM,34.0,19.0,54,29.94,10.0,NW,5.8,-,N/A,,Clear,320,2014-04-11 04:54:00
9:54 PM,35.1,15.1,44,29.98,10.0,NNW,11.5,-,N/A,,Clear,330,2014-04-11 05:54:00
10:54 PM,34.0,15.1,46,30.00,10.0,WNW,13.8,-,N/A,,Clear,290,2014-04-11 06:54:00
11:54 PM,33.1,16.0,50,30.03,10.0,NW,8.1,-,N/A,,Clear,310,2014-04-11 07:54:00